Tropical Cyclones
[Index]
Main Index Home Page Stock Weather Photos Extreme Storms Discussion Storm News and Storm Chasing Reports Tropical Cyclones / Hurricanes / Typhoons Weather Data and Links Wild Fires / Bushfires Weather Observation Techniques Weather Picture Catalogue Tornado Pictures and Reports Stock Video Footage and DVDs for sale
Season 1956-1957 Tropical Cyclone 195722 Track Map
Season 1956-1957 Summaries: [BoM-AU] [JTWC-AU] [JTWC-SIO] [JTWC-SPAC] [JTWC-SH]
<<- Previous TC | JTWC 1956-1957 Season | Next TC ->>

click for intensity scale information  Lat/long Grid: Show Hide

 Date Labels: Show Hide

Joint Typhoon Warning Centre Cyclone Data

Name: 195722
Number: 299 / 5722

21 Feb 1957 12:00 UTC to 01 Mar 1957 00:00 UTC

    date/time    lat    long     hPa   cat  kts
1957-02-21 12   10.9   178.8                              
1957-02-21 18   11.1   179.1                              
1957-02-22 00   11.4   179.4                              
1957-02-22 06   11.7   179.9                              
1957-02-22 12   12.0   179.7W                             
1957-02-22 18   12.1   179.4W                             
1957-02-23 00   12.2   179.2W                             
1957-02-23 06   12.5   179.0W                             
1957-02-23 12   12.8   178.8W                             
1957-02-23 18   13.0   178.4W                             
1957-02-24 00   13.3   178.1W                             
1957-02-24 06   13.6   178.0W                             
1957-02-24 12   13.9   177.8W                             
1957-02-24 18   14.1   177.6W                             
1957-02-25 00   14.3   177.5W                             
1957-02-25 06   15.5   178.0W                             
1957-02-25 12   16.9   178.7W                             
1957-02-25 18   17.9   179.3W                             
1957-02-26 00   18.8   179.9W                             
1957-02-26 06   19.4   179.8                              
1957-02-26 12   20.0   179.7                              
1957-02-26 18   20.8   179.5                              
1957-02-27 00   21.6   179.4                              
1957-02-27 06   22.4   179.3                              
1957-02-27 12   23.2   179.3                              
1957-02-27 18   24.1   179.4                              
1957-02-28 00   25.0   179.8                              
1957-02-28 06   25.7   179.6W                             
1957-02-28 12   26.3   179.0W                             
1957-02-28 18   26.8   178.3W                             
1957-03-01 00   27.1   177.6W                             
Winds are 1-min average.

Tropical cyclone tracks developed by Michael Bath using data from the Joint Typhoon Warning Centre Best Tracks and Google Maps.


[Australian Severe Weather index] [Copyright Notice] [Email Contacts] [Search This Site] [Privacy Policy]
Document: tropical_cyclone_195722.htm Updated: 18 September 2016